CheckWX is a tool to help pilots better visualize weather data.  It is not intended as a substitute for an official pre-flight weather briefing.

14:53:36 UTC

VTCL METAR
Lampang Airport
Thailand
Current

3 hours ago

VTCL 191200Z 10002KT 9999 FEW030 24/20 Q1013 NOSIG
Observed
Nov-19 @ 12:00 UTC
Wind
  • 100° at 2 KTS
Visibility
10,000+ meters
Flight Rules
VFR
Cloud Levels
  • Few at 3,000' AGL
Temperature
24°C / 75°F
Dewpoint
20°C / 68°F
Humidity
78%
Altimeter
29.91" Hg
Pressure
1012.92 hPa
Previous

4 hours ago

VTCL 191100Z 11002KT 9999 FEW030 26/21 Q1012 NOSIG
Observed
Nov-19 @ 11:00 UTC
Wind
  • 110° at 2 KTS
Visibility
10,000+ meters
Flight Rules
VFR
Cloud Levels
  • Few at 3,000' AGL
Temperature
26°C / 79°F
Dewpoint
21°C / 70°F
Humidity
74%
Altimeter
29.88" Hg
Pressure
1011.92 hPa
Previous

5 hours ago

VTCL 191000Z VRB02KT 9999 FEW030 33/18 Q1012 NOSIG
Observed
Nov-19 @ 10:00 UTC
Wind
  • Variable at 2 KTS
Visibility
10,000+ meters
Flight Rules
VFR
Cloud Levels
  • Few at 3,000' AGL
Temperature
33°C / 91°F
Dewpoint
18°C / 64°F
Heat Index
34°C / 93°F
Humidity
41%
Altimeter
29.88" Hg
Pressure
1011.92 hPa